sensor_id;sensor_type;location;lat;lon;timestamp;pressure;altitude;pressure_sealevel;temperature;humidity
5126;BME280;63008;53.112;8.896;2023-07-24T00:00:32;100239.13;;;18.68;100.00
5126;BME280;63008;53.112;8.896;2023-07-24T00:02:34;100237.94;;;18.65;100.00
5126;BME280;63008;53.112;8.896;2023-07-24T00:04:35;100237.13;;;18.65;100.00
5126;BME280;63008;53.112;8.896;2023-07-24T00:06:37;100237.53;;;18.67;100.00
5126;BME280;63008;53.112;8.896;2023-07-24T00:08:38;100243.88;;;18.67;100.00
5126;BME280;63008;53.112;8.896;2023-07-24T00:10:39;100243.88;;;18.64;100.00
5126;BME280;63008;53.112;8.896;2023-07-24T00:12:40;100237.16;;;18.61;100.00
5126;BME280;63008;53.112;8.896;2023-07-24T00:14:41;100236.34;;;18.57;100.00
5126;BME280;63008;53.112;8.896;2023-07-24T00:16:42;100231.16;;;18.66;100.00
5126;BME280;63008;53.112;8.896;2023-07-24T00:18:43;100231.16;;;18.66;100.00
5126;BME280;63008;53.112;8.896;2023-07-24T00:20:44;100233.56;;;18.64;100.00
5126;BME280;63008;53.112;8.896;2023-07-24T00:22:45;100240.69;;;18.62;100.00
5126;BME280;63008;53.112;8.896;2023-07-24T00:24:46;100232.38;;;18.62;100.00
5126;BME280;63008;53.112;8.896;2023-07-24T00:26:47;100230.38;;;18.62;100.00
5126;BME280;63008;53.112;8.896;2023-07-24T00:28:47;100235.16;;;18.65;100.00
5126;BME280;63008;53.112;8.896;2023-07-24T00:30:48;100217.66;;;18.65;100.00
5126;BME280;63008;53.112;8.896;2023-07-24T00:32:49;100224.84;;;18.62;100.00
5126;BME280;63008;53.112;8.896;2023-07-24T00:34:50;100226.03;;;18.58;100.00
5126;BME280;63008;53.112;8.896;2023-07-24T00:36:51;100223.63;;;18.63;100.00
5126;BME280;63008;53.112;8.896;2023-07-24T00:38:52;100222.84;;;18.56;100.00
5126;BME280;63008;53.112;8.896;2023-07-24T00:40:53;100216.50;;;18.52;100.00
5126;BME280;63008;53.112;8.896;2023-07-24T00:42:54;100216.13;;;18.50;100.00
5126;BME280;63008;53.112;8.896;2023-07-24T00:44:55;100217.72;;;18.48;100.00
5126;BME280;63008;53.112;8.896;2023-07-24T00:46:57;100218.09;;;18.49;100.00
5126;BME280;63008;53.112;8.896;2023-07-24T00:48:58;100222.47;;;18.47;100.00
5126;BME280;63008;53.112;8.896;2023-07-24T00:51:01;100221.69;;;18.47;100.00
5126;BME280;63008;53.112;8.896;2023-07-24T00:53:02;100221.28;;;18.45;100.00
5126;BME280;63008;53.112;8.896;2023-07-24T00:55:05;100221.28;;;18.45;100.00
5126;BME280;63008;53.112;8.896;2023-07-24T00:57:07;100220.47;;;18.44;100.00
5126;BME280;63008;53.112;8.896;2023-07-24T00:59:08;100211.38;;;18.44;100.00
5126;BME280;63008;53.112;8.896;2023-07-24T01:01:10;100214.94;;;18.48;100.00
5126;BME280;63008;53.112;8.896;2023-07-24T01:03:11;100210.97;;;18.52;100.00
5126;BME280;63008;53.112;8.896;2023-07-24T01:05:13;100201.41;;;18.53;100.00
5126;BME280;63008;53.112;8.896;2023-07-24T01:07:15;100207.38;;;18.55;100.00
5126;BME280;63008;53.112;8.896;2023-07-24T01:09:17;100208.16;;;18.62;100.00
5126;BME280;63008;53.112;8.896;2023-07-24T01:11:19;100196.25;;;18.58;100.00
5126;BME280;63008;53.112;8.896;2023-07-24T01:13:24;100209.34;;;18.61;100.00
5126;BME280;63008;53.112;8.896;2023-07-24T01:15:34;100209.31;;;18.65;100.00
5126;BME280;63008;53.112;8.896;2023-07-24T01:17:39;100210.50;;;18.67;100.00
5126;BME280;63008;53.112;8.896;2023-07-24T01:19:46;100204.94;;;18.67;100.00
5126;BME280;63008;53.112;8.896;2023-07-24T01:22:01;100206.16;;;18.70;100.00
5126;BME280;63008;53.112;8.896;2023-07-24T01:26:55;100216.47;;;18.66;100.00
5126;BME280;63008;53.112;8.896;2023-07-24T01:28:56;100212.91;;;18.65;100.00
5126;BME280;63008;53.112;8.896;2023-07-24T01:30:57;100220.84;;;18.67;100.00
5126;BME280;63008;53.112;8.896;2023-07-24T01:32:58;100213.69;;;18.69;100.00
5126;BME280;63008;53.112;8.896;2023-07-24T01:34:59;100219.66;;;18.64;100.00
5126;BME280;63008;53.112;8.896;2023-07-24T01:37:01;100218.50;;;18.58;100.00
5126;BME280;63008;53.112;8.896;2023-07-24T01:39:02;100216.50;;;18.55;100.00
5126;BME280;63008;53.112;8.896;2023-07-24T01:41:03;100213.75;;;18.52;100.00
5126;BME280;63008;53.112;8.896;2023-07-24T01:43:04;100220.09;;;18.49;100.00
5126;BME280;63008;53.112;8.896;2023-07-24T01:45:06;100212.16;;;18.48;100.00
5126;BME280;63008;53.112;8.896;2023-07-24T01:47:07;100214.94;;;18.51;100.00
5126;BME280;63008;53.112;8.896;2023-07-24T01:49:08;100205.78;;;18.47;100.00
5126;BME280;63008;53.112;8.896;2023-07-24T01:51:09;100205.78;;;18.47;100.00
5126;BME280;63008;53.112;8.896;2023-07-24T01:53:10;100205.81;;;18.44;100.00
5126;BME280;63008;53.112;8.896;2023-07-24T01:55:11;100203.84;;;18.41;100.00
5126;BME280;63008;53.112;8.896;2023-07-24T01:57:12;100207.78;;;18.40;100.00
5126;BME280;63008;53.112;8.896;2023-07-24T01:59:13;100204.59;;;18.38;100.00
5126;BME280;63008;53.112;8.896;2023-07-24T02:01:14;100205.03;;;18.36;100.00
5126;BME280;63008;53.112;8.896;2023-07-24T02:03:15;100206.59;;;18.37;100.00
5126;BME280;63008;53.112;8.896;2023-07-24T02:05:16;100211.34;;;18.37;100.00
5126;BME280;63008;53.112;8.896;2023-07-24T02:07:17;100206.59;;;18.34;100.00
5126;BME280;63008;53.112;8.896;2023-07-24T02:09:18;100208.59;;;18.37;100.00
5126;BME280;63008;53.112;8.896;2023-07-24T02:11:19;100212.56;;;18.39;100.00
5126;BME280;63008;53.112;8.896;2023-07-24T02:13:20;100209.38;;;18.41;100.00
5126;BME280;63008;53.112;8.896;2023-07-24T02:15:21;100206.63;;;18.41;100.00
5126;BME280;63008;53.112;8.896;2023-07-24T02:17:23;100196.28;;;18.45;100.00
5126;BME280;63008;53.112;8.896;2023-07-24T02:19:24;100208.97;;;18.42;100.00
5126;BME280;63008;53.112;8.896;2023-07-24T02:21:25;100202.63;;;18.42;100.00
5126;BME280;63008;53.112;8.896;2023-07-24T02:23:26;100199.84;;;18.45;100.00
5126;BME280;63008;53.112;8.896;2023-07-24T02:25:27;100198.25;;;18.44;100.00
5126;BME280;63008;53.112;8.896;2023-07-24T02:27:29;100196.66;;;18.47;100.00
5126;BME280;63008;53.112;8.896;2023-07-24T02:29:31;100201.41;;;18.49;100.00
5126;BME280;63008;53.112;8.896;2023-07-24T02:31:33;100200.66;;;18.49;100.00
5126;BME280;63008;53.112;8.896;2023-07-24T02:33:34;100199.44;;;18.50;100.00
5126;BME280;63008;53.112;8.896;2023-07-24T02:35:39;100197.44;;;18.47;100.00
5126;BME280;63008;53.112;8.896;2023-07-24T02:37:40;100192.31;;;18.49;100.00
5126;BME280;63008;53.112;8.896;2023-07-24T02:39:41;100180.38;;;18.48;100.00
5126;BME280;63008;53.112;8.896;2023-07-24T02:41:42;100186.31;;;18.47;100.00
5126;BME280;63008;53.112;8.896;2023-07-24T02:43:43;100179.59;;;18.45;100.00
5126;BME280;63008;53.112;8.896;2023-07-24T02:45:44;100189.91;;;18.48;100.00
5126;BME280;63008;53.112;8.896;2023-07-24T02:47:45;100184.34;;;18.48;100.00
5126;BME280;63008;53.112;8.896;2023-07-24T02:49:46;100182.38;;;18.45;100.00
5126;BME280;63008;53.112;8.896;2023-07-24T02:51:47;100186.31;;;18.47;100.00
5126;BME280;63008;53.112;8.896;2023-07-24T02:53:50;100182.78;;;18.47;100.00
5126;BME280;63008;53.112;8.896;2023-07-24T02:55:50;100190.34;;;18.43;100.00
5126;BME280;63008;53.112;8.896;2023-07-24T02:57:51;100184.38;;;18.37;100.00
5126;BME280;63008;53.112;8.896;2023-07-24T02:59:52;100182.38;;;18.38;100.00
5126;BME280;63008;53.112;8.896;2023-07-24T03:01:53;100187.16;;;18.34;100.00
5126;BME280;63008;53.112;8.896;2023-07-24T03:03:54;100189.94;;;18.30;100.00
5126;BME280;63008;53.112;8.896;2023-07-24T03:05:55;100189.91;;;18.23;100.00
5126;BME280;63008;53.112;8.896;2023-07-24T03:07:56;100186.75;;;18.18;100.00
5126;BME280;63008;53.112;8.896;2023-07-24T03:09:57;100191.91;;;18.16;100.00
5126;BME280;63008;53.112;8.896;2023-07-24T03:11:58;100193.91;;;18.12;100.00
5126;BME280;63008;53.112;8.896;2023-07-24T03:13:59;100185.94;;;18.10;100.00
5126;BME280;63008;53.112;8.896;2023-07-24T03:16:00;100182.78;;;18.05;100.00
5126;BME280;63008;53.112;8.896;2023-07-24T03:18:01;100191.13;;;18.01;100.00
5126;BME280;63008;53.112;8.896;2023-07-24T03:20:09;100185.97;;;17.96;100.00
5126;BME280;63008;53.112;8.896;2023-07-24T03:22:11;100174.88;;;17.93;100.00
5126;BME280;63008;53.112;8.896;2023-07-24T03:24:12;100178.03;;;17.91;100.00
5126;BME280;63008;53.112;8.896;2023-07-24T03:26:13;100182.78;;;17.87;100.00
5126;BME280;63008;53.112;8.896;2023-07-24T03:28:14;100185.19;;;17.85;100.00
5126;BME280;63008;53.112;8.896;2023-07-24T03:30:14;100181.59;;;17.85;100.00
5126;BME280;63008;53.112;8.896;2023-07-24T03:32:15;100174.88;;;17.82;100.00
5126;BME280;63008;53.112;8.896;2023-07-24T03:34:16;100169.31;;;17.82;100.00
5126;BME280;63008;53.112;8.896;2023-07-24T03:36:17;100181.59;;;17.81;100.00
5126;BME280;63008;53.112;8.896;2023-07-24T03:38:18;100173.28;;;17.78;100.00
5126;BME280;63008;53.112;8.896;2023-07-24T03:40:19;100171.69;;;17.77;100.00
5126;BME280;63008;53.112;8.896;2023-07-24T03:42:28;100170.50;;;17.78;100.00
5126;BME280;63008;53.112;8.896;2023-07-24T03:44:30;100171.69;;;17.77;100.00
5126;BME280;63008;53.112;8.896;2023-07-24T03:46:34;100158.97;;;17.72;100.00
5126;BME280;63008;53.112;8.896;2023-07-24T03:48:35;100165.34;;;17.69;100.00
5126;BME280;63008;53.112;8.896;2023-07-24T03:50:37;100161.38;;;17.70;100.00
5126;BME280;63008;53.112;8.896;2023-07-24T03:52:38;100158.59;;;17.70;100.00
5126;BME280;63008;53.112;8.896;2023-07-24T03:54:39;100163.34;;;17.73;100.00
5126;BME280;63008;53.112;8.896;2023-07-24T03:56:40;100169.72;;;17.74;100.00
5126;BME280;63008;53.112;8.896;2023-07-24T03:58:41;100171.66;;;17.73;100.00
5126;BME280;63008;53.112;8.896;2023-07-24T04:00:42;100184.38;;;17.78;100.00
5126;BME280;63008;53.112;8.896;2023-07-24T04:02:43;100184.78;;;17.83;100.00
5126;BME280;63008;53.112;8.896;2023-07-24T04:04:44;100176.84;;;17.89;100.00
5126;BME280;63008;53.112;8.896;2023-07-24T04:06:45;100169.28;;;18.00;100.00
5126;BME280;63008;53.112;8.896;2023-07-24T04:08:46;100162.94;;;18.03;100.00
5126;BME280;63008;53.112;8.896;2023-07-24T04:10:47;100170.09;;;18.04;100.00
5126;BME280;63008;53.112;8.896;2023-07-24T04:12:48;100174.84;;;18.03;100.00
5126;BME280;63008;53.112;8.896;2023-07-24T04:14:49;100176.44;;;18.04;100.00
5126;BME280;63008;53.112;8.896;2023-07-24T04:16:51;100169.31;;;18.03;100.00
5126;BME280;63008;53.112;8.896;2023-07-24T04:18:52;100174.06;;;18.06;100.00
5126;BME280;63008;53.112;8.896;2023-07-24T04:20:53;100174.06;;;18.10;100.00
5126;BME280;63008;53.112;8.896;2023-07-24T04:22:53;100168.47;;;18.13;100.00
5126;BME280;63008;53.112;8.896;2023-07-24T04:24:54;100169.28;;;18.14;100.00
5126;BME280;63008;53.112;8.896;2023-07-24T04:26:55;100162.94;;;18.24;100.00
5126;BME280;63008;53.112;8.896;2023-07-24T04:28:56;100159.34;;;18.20;100.00
5126;BME280;63008;53.112;8.896;2023-07-24T04:31:00;100162.53;;;18.25;100.00
5126;BME280;63008;53.112;8.896;2023-07-24T04:33:02;100167.31;;;18.28;100.00
5126;BME280;63008;53.112;8.896;2023-07-24T04:35:03;100152.63;;;18.38;100.00
5126;BME280;63008;53.112;8.896;2023-07-24T04:37:04;100148.63;;;18.36;100.00
5126;BME280;63008;53.112;8.896;2023-07-24T04:39:05;100143.84;;;18.43;100.00
5126;BME280;63008;53.112;8.896;2023-07-24T04:41:06;100135.91;;;18.45;100.00
5126;BME280;63008;53.112;8.896;2023-07-24T04:43:07;100149.81;;;18.48;100.00
5126;BME280;63008;53.112;8.896;2023-07-24T04:45:09;100134.31;;;18.51;100.00
5126;BME280;63008;53.112;8.896;2023-07-24T04:47:10;100125.94;;;18.58;100.00
5126;BME280;63008;53.112;8.896;2023-07-24T04:49:11;100128.69;;;18.65;100.00
5126;BME280;63008;53.112;8.896;2023-07-24T04:51:12;100128.31;;;18.66;100.00
5126;BME280;63008;53.112;8.896;2023-07-24T04:53:12;100124.31;;;18.67;100.00
5126;BME280;63008;53.112;8.896;2023-07-24T04:55:14;100127.09;;;18.67;100.00
5126;BME280;63008;53.112;8.896;2023-07-24T04:57:14;100123.13;;;18.72;100.00
5126;BME280;63008;53.112;8.896;2023-07-24T04:59:15;100118.34;;;18.76;100.00
5126;BME280;63008;53.112;8.896;2023-07-24T05:01:16;100116.38;;;18.76;100.00
5126;BME280;63008;53.112;8.896;2023-07-24T05:03:17;100116.38;;;18.69;100.00
5126;BME280;63008;53.112;8.896;2023-07-24T05:05:18;100109.22;;;18.72;100.00
5126;BME280;63008;53.112;8.896;2023-07-24T05:07:19;100103.66;;;18.72;100.00
5126;BME280;63008;53.112;8.896;2023-07-24T05:09:20;100096.53;;;18.67;100.00
5126;BME280;63008;53.112;8.896;2023-07-24T05:11:21;100100.91;;;18.65;100.00
5126;BME280;63008;53.112;8.896;2023-07-24T05:13:23;100106.88;;;18.67;100.00
5126;BME280;63008;53.112;8.896;2023-07-24T05:15:23;100099.25;;;18.78;100.00
5126;BME280;63008;53.112;8.896;2023-07-24T05:17:24;100096.84;;;18.80;100.00
5126;BME280;63008;53.112;8.896;2023-07-24T05:19:25;100102.38;;;18.90;100.00
5126;BME280;63008;53.112;8.896;2023-07-24T05:21:26;100103.94;;;18.95;100.00
5126;BME280;63008;53.112;8.896;2023-07-24T05:23:27;100103.16;;;18.94;100.00
5126;BME280;63008;53.112;8.896;2023-07-24T05:25:28;100103.16;;;18.91;100.00
5126;BME280;63008;53.112;8.896;2023-07-24T05:27:29;100095.22;;;18.93;100.00
5126;BME280;63008;53.112;8.896;2023-07-24T05:29:31;100099.59;;;18.90;100.00
5126;BME280;63008;53.112;8.896;2023-07-24T05:31:34;100100.38;;;18.94;100.00
5126;BME280;63008;53.112;8.896;2023-07-24T05:33:35;100099.19;;;18.92;100.00
5126;BME280;63008;53.112;8.896;2023-07-24T05:35:36;100098.81;;;18.90;100.00
5126;BME280;63008;53.112;8.896;2023-07-24T05:37:37;100098.38;;;18.91;100.00
5126;BME280;63008;53.112;8.896;2023-07-24T05:39:37;100102.75;;;18.92;100.00
5126;BME280;63008;53.112;8.896;2023-07-24T05:41:38;100105.91;;;18.98;100.00
5126;BME280;63008;53.112;8.896;2023-07-24T05:43:39;100101.13;;;19.02;100.00
5126;BME280;63008;53.112;8.896;2023-07-24T05:45:40;100093.56;;;18.99;100.00
5126;BME280;63008;53.112;8.896;2023-07-24T05:47:41;100095.56;;;19.02;100.00
5126;BME280;63008;53.112;8.896;2023-07-24T05:49:42;100088.75;;;19.06;100.00
5126;BME280;63008;53.112;8.896;2023-07-24T05:51:43;100086.41;;;19.01;100.00
5126;BME280;63008;53.112;8.896;2023-07-24T05:53:44;100077.28;;;19.01;100.00
5126;BME280;63008;53.112;8.896;2023-07-24T05:55:45;100084.00;;;19.07;100.00
5126;BME280;63008;53.112;8.896;2023-07-24T05:57:46;100072.88;;;19.07;100.00
5126;BME280;63008;53.112;8.896;2023-07-24T05:59:47;100070.88;;;19.07;100.00
5126;BME280;63008;53.112;8.896;2023-07-24T06:01:48;100073.63;;;19.14;100.00
5126;BME280;63008;53.112;8.896;2023-07-24T06:03:49;100072.03;;;19.17;100.00
5126;BME280;63008;53.112;8.896;2023-07-24T06:05:51;100069.66;;;19.12;100.00
5126;BME280;63008;53.112;8.896;2023-07-24T06:07:53;100074.84;;;19.10;100.00
5126;BME280;63008;53.112;8.896;2023-07-24T06:09:54;100081.19;;;19.10;100.00
5126;BME280;63008;53.112;8.896;2023-07-24T06:11:55;100078.81;;;19.09;100.00
5126;BME280;63008;53.112;8.896;2023-07-24T06:13:56;100080.03;;;19.08;100.00
5126;BME280;63008;53.112;8.896;2023-07-24T06:15:57;100091.16;;;19.08;100.00
5126;BME280;63008;53.112;8.896;2023-07-24T06:17:58;100088.38;;;19.04;100.00
5126;BME280;63008;53.112;8.896;2023-07-24T06:19:59;100080.03;;;19.04;100.00
5126;BME280;63008;53.112;8.896;2023-07-24T06:22:00;100083.63;;;19.05;100.00
5126;BME280;63008;53.112;8.896;2023-07-24T06:24:01;100079.66;;;19.06;100.00
5126;BME280;63008;53.112;8.896;2023-07-24T06:26:02;100076.88;;;19.06;100.00
5126;BME280;63008;53.112;8.896;2023-07-24T06:28:03;100074.84;;;19.06;100.00
5126;BME280;63008;53.112;8.896;2023-07-24T06:30:04;100068.09;;;19.07;100.00
5126;BME280;63008;53.112;8.896;2023-07-24T06:32:06;100074.81;;;19.17;100.00
5126;BME280;63008;53.112;8.896;2023-07-24T06:34:07;100074.41;;;19.22;100.00
5126;BME280;63008;53.112;8.896;2023-07-24T06:36:11;100073.97;;;19.23;100.00
5126;BME280;63008;53.112;8.896;2023-07-24T06:38:11;100075.59;;;19.21;100.00
5126;BME280;63008;53.112;8.896;2023-07-24T06:40:14;100076.75;;;19.27;100.00
5126;BME280;63008;53.112;8.896;2023-07-24T06:42:15;100072.81;;;19.21;100.00
5126;BME280;63008;53.112;8.896;2023-07-24T06:44:16;100074.03;;;19.20;100.00
5126;BME280;63008;53.112;8.896;2023-07-24T06:46:17;100072.03;;;19.20;100.00
5126;BME280;63008;53.112;8.896;2023-07-24T06:48:18;100073.59;;;19.21;100.00
5126;BME280;63008;53.112;8.896;2023-07-24T06:50:19;100074.81;;;19.17;100.00
5126;BME280;63008;53.112;8.896;2023-07-24T06:52:20;100082.75;;;19.15;100.00
5126;BME280;63008;53.112;8.896;2023-07-24T06:54:21;100085.53;;;19.15;100.00
5126;BME280;63008;53.112;8.896;2023-07-24T06:56:22;100086.75;;;19.10;100.00
5126;BME280;63008;53.112;8.896;2023-07-24T06:58:23;100092.72;;;19.12;100.00
5126;BME280;63008;53.112;8.896;2023-07-24T07:00:24;100094.31;;;19.10;100.00
5126;BME280;63008;53.112;8.896;2023-07-24T07:02:25;100085.56;;;19.11;100.00
5126;BME280;63008;53.112;8.896;2023-07-24T07:04:26;100088.34;;;19.11;100.00
5126;BME280;63008;53.112;8.896;2023-07-24T07:06:27;100094.31;;;19.10;100.00
5126;BME280;63008;53.112;8.896;2023-07-24T07:08:29;100097.09;;;19.10;100.00
5126;BME280;63008;53.112;8.896;2023-07-24T07:10:31;100098.25;;;19.16;100.00
5126;BME280;63008;53.112;8.896;2023-07-24T07:12:32;100093.50;;;19.13;100.00
5126;BME280;63008;53.112;8.896;2023-07-24T07:14:33;100089.56;;;19.07;100.00
5126;BME280;63008;53.112;8.896;2023-07-24T07:16:34;100092.34;;;19.07;100.00
5126;BME280;63008;53.112;8.896;2023-07-24T07:18:35;100080.06;;;19.01;100.00
5126;BME280;63008;53.112;8.896;2023-07-24T07:20:36;100073.69;;;19.04;100.00
5126;BME280;63008;53.112;8.896;2023-07-24T07:22:37;100070.53;;;19.02;100.00
5126;BME280;63008;53.112;8.896;2023-07-24T07:24:38;100076.09;;;19.02;100.00
5126;BME280;63008;53.112;8.896;2023-07-24T07:26:39;100070.94;;;19.00;100.00
5126;BME280;63008;53.112;8.896;2023-07-24T07:28:40;100072.53;;;18.98;100.00
5126;BME280;63008;53.112;8.896;2023-07-24T07:30:42;100088.06;;;18.95;100.00
5126;BME280;63008;53.112;8.896;2023-07-24T07:32:43;100090.03;;;18.91;100.00
5126;BME280;63008;53.112;8.896;2023-07-24T07:34:44;100080.91;;;18.94;100.00
5126;BME280;63008;53.112;8.896;2023-07-24T07:36:45;100079.25;;;19.04;100.00
5126;BME280;63008;53.112;8.896;2023-07-24T07:38:46;100088.00;;;19.02;100.00
5126;BME280;63008;53.112;8.896;2023-07-24T07:40:47;100090.38;;;19.04;100.00
5126;BME280;63008;53.112;8.896;2023-07-24T07:42:48;100092.78;;;19.02;100.00
5126;BME280;63008;53.112;8.896;2023-07-24T07:44:49;100085.59;;;19.08;100.00
5126;BME280;63008;53.112;8.896;2023-07-24T07:46:50;100103.03;;;19.12;100.00
5126;BME280;63008;53.112;8.896;2023-07-24T07:48:51;100095.47;;;19.19;100.00
5126;BME280;63008;53.112;8.896;2023-07-24T07:50:52;100091.88;;;19.22;100.00
5126;BME280;63008;53.112;8.896;2023-07-24T07:52:53;100095.84;;;19.28;100.00
5126;BME280;63008;53.112;8.896;2023-07-24T07:54:54;100099.75;;;19.34;100.00
5126;BME280;63008;53.112;8.896;2023-07-24T07:56:55;100089.38;;;19.42;100.00
5126;BME280;63008;53.112;8.896;2023-07-24T07:58:56;100088.09;;;19.50;100.00
5126;BME280;63008;53.112;8.896;2023-07-24T08:00:57;100090.03;;;19.56;100.00
5126;BME280;63008;53.112;8.896;2023-07-24T08:02:58;100092.34;;;19.65;98.98
5126;BME280;63008;53.112;8.896;2023-07-24T08:04:59;100087.50;;;19.72;97.28
5126;BME280;63008;53.112;8.896;2023-07-24T08:07:00;100099.00;;;19.78;95.52
5126;BME280;63008;53.112;8.896;2023-07-24T08:09:01;100103.28;;;19.89;96.92
5126;BME280;63008;53.112;8.896;2023-07-24T08:11:05;100100.84;;;19.95;95.13
5126;BME280;63008;53.112;8.896;2023-07-24T08:13:06;100094.03;;;19.99;95.00
5126;BME280;63008;53.112;8.896;2023-07-24T08:15:10;100085.97;;;20.12;95.71
5126;BME280;63008;53.112;8.896;2023-07-24T08:17:12;100087.94;;;20.15;94.91
5126;BME280;63008;53.112;8.896;2023-07-24T08:19:13;100091.94;;;20.14;95.56
5126;BME280;63008;53.112;8.896;2023-07-24T08:21:14;100101.19;;;20.04;94.27
5126;BME280;63008;53.112;8.896;2023-07-24T08:23:15;100096.03;;;20.02;95.36
5126;BME280;63008;53.112;8.896;2023-07-24T08:25:16;100090.53;;;19.92;95.89
5126;BME280;63008;53.112;8.896;2023-07-24T08:27:17;100096.03;;;19.99;95.51
5126;BME280;63008;53.112;8.896;2023-07-24T08:29:18;100088.47;;;19.99;94.94
5126;BME280;63008;53.112;8.896;2023-07-24T08:31:19;100091.63;;;20.01;95.59
5126;BME280;63008;53.112;8.896;2023-07-24T08:33:20;100090.75;;;20.11;95.04
5126;BME280;63008;53.112;8.896;2023-07-24T08:35:21;100085.91;;;20.19;94.10
5126;BME280;63008;53.112;8.896;2023-07-24T08:37:22;100093.06;;;20.20;94.31
5126;BME280;63008;53.112;8.896;2023-07-24T08:39:23;100082.38;;;20.15;94.87
5126;BME280;63008;53.112;8.896;2023-07-24T08:41:24;100084.91;;;19.95;96.24
5126;BME280;63008;53.112;8.896;2023-07-24T08:43:25;100081.69;;;20.00;97.01
5126;BME280;63008;53.112;8.896;2023-07-24T08:45:27;100083.69;;;20.00;96.55
5126;BME280;63008;53.112;8.896;2023-07-24T08:47:28;100082.09;;;19.99;95.64
5126;BME280;63008;53.112;8.896;2023-07-24T08:49:30;100082.19;;;19.92;97.16
5126;BME280;63008;53.112;8.896;2023-07-24T08:51:32;100081.47;;;19.81;97.56
5126;BME280;63008;53.112;8.896;2023-07-24T08:53:38;100081.41;;;19.88;97.37
5126;BME280;63008;53.112;8.896;2023-07-24T08:55:40;100073.81;;;19.92;96.24
5126;BME280;63008;53.112;8.896;2023-07-24T08:57:41;100068.97;;;19.99;96.35
5126;BME280;63008;53.112;8.896;2023-07-24T08:59:42;100065.19;;;20.20;97.54
5126;BME280;63008;53.112;8.896;2023-07-24T09:01:44;100065.50;;;20.29;96.65
5126;BME280;63008;53.112;8.896;2023-07-24T09:03:45;100074.22;;;20.31;95.11
5126;BME280;63008;53.112;8.896;2023-07-24T09:05:45;100065.41;;;20.36;94.94
5126;BME280;63008;53.112;8.896;2023-07-24T09:07:46;100067.56;;;20.21;94.38
5126;BME280;63008;53.112;8.896;2023-07-24T09:09:47;100071.56;;;20.20;94.45
5126;BME280;63008;53.112;8.896;2023-07-24T09:11:52;100064.28;;;20.30;94.22
5126;BME280;63008;53.112;8.896;2023-07-24T09:13:54;100063.13;;;20.24;94.75
5126;BME280;63008;53.112;8.896;2023-07-24T09:15:55;100057.19;;;20.22;94.71
5126;BME280;63008;53.112;8.896;2023-07-24T09:17:56;100059.91;;;20.29;94.36
5126;BME280;63008;53.112;8.896;2023-07-24T09:19:57;100066.13;;;20.39;94.97
5126;BME280;63008;53.112;8.896;2023-07-24T09:22:11;100074.69;;;20.59;93.38
5126;BME280;63008;53.112;8.896;2023-07-24T09:24:14;100060.72;;;20.59;93.43
5126;BME280;63008;53.112;8.896;2023-07-24T09:26:15;100049.25;;;20.53;94.01
5126;BME280;63008;53.112;8.896;2023-07-24T09:28:17;100060.44;;;20.50;93.67
5126;BME280;63008;53.112;8.896;2023-07-24T09:30:18;100062.91;;;20.44;93.24
5126;BME280;63008;53.112;8.896;2023-07-24T09:32:25;100062.53;;;20.42;93.09
5126;BME280;63008;53.112;8.896;2023-07-24T09:34:27;100062.13;;;20.40;91.77
5126;BME280;63008;53.112;8.896;2023-07-24T09:36:37;100065.63;;;20.48;91.70
5126;BME280;63008;53.112;8.896;2023-07-24T09:38:39;100072.41;;;20.47;91.91
5126;BME280;63008;53.112;8.896;2023-07-24T09:40:43;100065.69;;;20.44;92.84
5126;BME280;63008;53.112;8.896;2023-07-24T09:42:44;100065.22;;;20.49;94.15
5126;BME280;63008;53.112;8.896;2023-07-24T09:44:45;100060.72;;;20.59;93.44
5126;BME280;63008;53.112;8.896;2023-07-24T09:46:46;100053.88;;;20.97;91.65
5126;BME280;63008;53.112;8.896;2023-07-24T09:48:47;100059.94;;;21.18;90.78
5126;BME280;63008;53.112;8.896;2023-07-24T09:50:53;100055.03;;;20.99;88.49
5126;BME280;63008;53.112;8.896;2023-07-24T09:52:55;100044.28;;;20.98;89.36
5126;BME280;63008;53.112;8.896;2023-07-24T09:55:11;100049.78;;;21.05;89.22
5126;BME280;63008;53.112;8.896;2023-07-24T09:57:13;100043.91;;;21.22;86.31
5126;BME280;63008;53.112;8.896;2023-07-24T09:59:15;100048.22;;;21.76;85.88
5126;BME280;63008;53.112;8.896;2023-07-24T10:01:16;100054.22;;;22.40;79.89
5126;BME280;63008;53.112;8.896;2023-07-24T10:03:17;100030.13;;;22.65;77.24
5126;BME280;63008;53.112;8.896;2023-07-24T10:05:19;100039.09;;;23.28;76.63
5126;BME280;63008;53.112;8.896;2023-07-24T10:07:20;100027.78;;;23.47;72.19
5126;BME280;63008;53.112;8.896;2023-07-24T10:09:23;100042.94;;;23.82;71.62
5126;BME280;63008;53.112;8.896;2023-07-24T10:11:26;100035.94;;;23.90;69.99
5126;BME280;63008;53.112;8.896;2023-07-24T10:13:28;100045.28;;;23.99;70.55
5126;BME280;63008;53.112;8.896;2023-07-24T10:15:30;100037.03;;;24.08;69.62
5126;BME280;63008;53.112;8.896;2023-07-24T10:17:38;100033.13;;;23.90;69.62
5126;BME280;63008;53.112;8.896;2023-07-24T10:19:41;100041.91;;;23.44;69.89
5126;BME280;63008;53.112;8.896;2023-07-24T10:21:47;100029.00;;;23.62;70.56
5126;BME280;63008;53.112;8.896;2023-07-24T10:23:48;100026.00;;;24.01;69.83
5126;BME280;63008;53.112;8.896;2023-07-24T10:25:49;100033.47;;;23.92;69.32
5126;BME280;63008;53.112;8.896;2023-07-24T10:27:51;100026.44;;;24.28;68.98
5126;BME280;63008;53.112;8.896;2023-07-24T10:30:04;100016.72;;;24.33;67.96
5126;BME280;63008;53.112;8.896;2023-07-24T10:32:17;100018.63;;;24.76;65.90
5126;BME280;63008;53.112;8.896;2023-07-24T10:34:19;100024.28;;;25.01;66.15
5126;BME280;63008;53.112;8.896;2023-07-24T10:36:21;100024.06;;;25.21;63.32
5126;BME280;63008;53.112;8.896;2023-07-24T10:38:34;100020.09;;;24.93;64.47
5126;BME280;63008;53.112;8.896;2023-07-24T10:40:35;100017.34;;;24.52;67.25